Inicio METAR Ruta Wind Satelite

Informe Meteorológico

Fecha: 2020/07/02 00:17:09 Local
2020.07.02 05:17 UTC


Estado: VENCIDO
Operación:MVFR
Arauca / Santiago Perez, Colombia (SKUC) 07-04N 070-44W 128M
2020.07.01 2200 UTC
Wind: Variable at 2 MPH (2 KT):0
Visibility: 4 mile(s):0
Sky conditions: mostly cloudy
Weather: light drizzle
Temperature: 77 F (25 C)
Dew Point: 77 F (25 C)
Relative Humidity: 100%
Pressure (altimeter): 29.82 in. Hg (1009 hPa)
ob: SKUC 012200Z VRB02KT 8000 -DZ BKN012 SCT070 25/25 A2982
cycle: 22

SKUC 012100Z 32003KT 4000 -DZ BKN010 SCT070 25/25 A2980
SKUC 012000Z 31003KT 8000 VCSH BKN010 26/25 A2981 RMK VCSH/NW
SKUC 011900Z VRB02KT 9000 VCSH BKN012 25/25 A2983 RMK VCSH/W
SKUC 011800Z 11003KT 8000 VCSH BKN010 27/25 A2985 RMK VCSH/ NE E
SKUC 011700Z VRB02KT 9999 BKN017 SCT200 27/24 A2987 REDZ